METAR Data
IDs: Format: Raw Decoded Include TAF

Data at: 1547 UTC 03 Dec 2021

METAR for:KLXV (Leadville/Lake Cnty, CO, US)
Text:KLXV 031453Z AUTO 06006KT 10SM CLR M06/M11 A3033 RMK AO2 SLP233 T10611106 51004
Temperature: -6.1°C ( 21°F)
Dewpoint:-10.6°C ( 13°F) [RH = 70%]
Pressure (altimeter):30.33 inches Hg (1027.2 mb) [Sea level pressure: 1023.3 mb]
Winds:from the ENE (60 degrees) at 7 MPH (6 knots; 3.1 m/s)
Visibility:10 or more sm (16+ km)
Ceiling:at least 12,000 feet AGL
Clouds:sky clear below 12,000 feet AGL
QC Flag:automated observation with no human augmentation